Southwester — E5U3142 — position and weather

sailwx.info

Track history (hours):
 
Tides and Currents Weather Stations Pressure Air Temp Water Temp Dewpoint Dewpoint Depression Visibility Wind Speed Wind Dir Waves Ship Positions

Southwester

Last reported at 2018-Jun-19 10:12 UTC. Time now 2018-Jun-21 23:52 UTC.
Position N 37°53' E 015°39'.

Length 100 m; draft 4.8 m.

Type: Cargo ship. MMSI: 518100201.

Date/timePositionNaut miles runAvg speedWind from/ knotsBaromVisibWave heightAir tempDewpointWater temp
2018-Jun-19 10:12N 37°53' E 015°39'2 9.9
2018-Jun-19 10:00N 37°54' E 015°38'810.1
2018-Jun-19 09:11N 38°02' E 015°34'210.9
2018-Jun-19 09:00N 38°04' E 015°35'611.0
2018-Jun-19 08:30N 38°09' E 015°35'910.5
2018-Jun-19 07:41N 38°17' E 015°40'212.5
2018-Jun-19 07:30N 38°19' E 015°38'612.0
2018-Jun-19 07:00N 38°24' E 015°34'611.6
2018-Jun-19 06:30N 38°29' E 015°31'12311.4
2018-Jun-18 19:40N 40°18' E 014°17'211.5
2018-Jun-18 19:30N 40°20' E 014°16'911.6
2018-Jun-18 18:44N 40°28' E 014°11'411.4
2018-Jun-18 18:20N 40°32' E 014°09'411.5
2018-Jun-18 18:00N 40°36' E 014°11'611.4
2018-Jun-18 17:30N 40°41' E 014°13'611.4
2018-Jun-18 17:00N 40°47' E 014°16'4 6.8
2018-Jun-18 16:28N 40°50' E 014°17'0 0.0
2018-Jun-18 15:58N 40°50' E 014°17'0 0.0
2018-Jun-18 15:25N 40°50' E 014°17'0 0.0
2018-Jun-18 14:58N 40°50' E 014°17'0 0.0
2018-Jun-18 14:28N 40°50' E 014°17'0 0.0
2018-Jun-18 13:58N 40°50' E 014°17'0 0.0
2018-Jun-18 13:28N 40°50' E 014°17'0 0.0
2018-Jun-18 12:58N 40°50' E 014°17'0 0.0
2018-Jun-18 12:28N 40°50' E 014°17'0 0.0
2018-Jun-18 11:58N 40°50' E 014°17'0 0.0
2018-Jun-18 11:25N 40°50' E 014°17'0 0.0
2018-Jun-18 10:58N 40°50' E 014°17'0 0.0
2018-Jun-18 10:28N 40°50' E 014°17'0 0.0
2018-Jun-18 09:58N 40°50' E 014°17'0 0.0
2018-Jun-18 09:28N 40°50' E 014°17'0 0.0
2018-Jun-18 08:58N 40°50' E 014°17'0 0.0
2018-Jun-18 08:28N 40°50' E 014°17'0 0.0
2018-Jun-18 07:58N 40°50' E 014°17'0 0.0
2018-Jun-18 07:28N 40°50' E 014°17'0 0.0
2018-Jun-18 06:58N 40°50' E 014°17'0 0.0
2018-Jun-18 06:28N 40°50' E 014°17'0 0.0
2018-Jun-18 05:58N 40°50' E 014°17'0 0.0
2018-Jun-18 05:29N 40°50' E 014°17'0 0.9
2018-Jun-18 05:01N 40°50' E 014°17'1 2.7
2018-Jun-18 04:29N 40°49' E 014°18'0 0.2
2018-Jun-18 03:59N 40°49' E 014°18'0 0.1
2018-Jun-18 03:29N 40°49' E 014°18'0 0.0
2018-Jun-18 02:59N 40°49' E 014°18'0 0.0
2018-Jun-18 02:29N 40°49' E 014°18'0 0.0
2018-Jun-18 01:59N 40°49' E 014°18'0 0.0
2018-Jun-18 01:29N 40°49' E 014°18'0 0.0
2018-Jun-18 00:59N 40°49' E 014°18'0 0.0
2018-Jun-18 00:29N 40°49' E 014°18'0 0.0
2018-Jun-17 23:59N 40°49' E 014°18'0 0.0
2018-Jun-17 23:29N 40°49' E 014°18'0 0.1
2018-Jun-17 22:59N 40°49' E 014°18'0 0.0
2018-Jun-17 22:29N 40°49' E 014°18'0 0.1
2018-Jun-17 21:59N 40°49' E 014°18'0 0.0
2018-Jun-17 21:29N 40°49' E 014°18'0 0.0
2018-Jun-17 20:59N 40°49' E 014°18'0 0.0
2018-Jun-17 20:29N 40°49' E 014°18'0 0.0
2018-Jun-17 19:59N 40°49' E 014°18'0 0.0
2018-Jun-17 19:29N 40°49' E 014°18'0 0.0
2018-Jun-17 18:59N 40°49' E 014°18'0 0.1
2018-Jun-17 18:29N 40°49' E 014°18'0 0.0
2018-Jun-17 17:59N 40°49' E 014°18'0 0.1
2018-Jun-17 17:29N 40°49' E 014°18'0 0.1
2018-Jun-17 16:56N 40°49' E 014°18'1 1.8
2018-Jun-17 16:30N 40°48' E 014°17'4 7.4
2018-Jun-17 16:01N 40°45' E 014°15'510.9
2018-Jun-17 15:30N 40°40' E 014°12'510.6
2018-Jun-17 15:01N 40°35' E 014°10'510.0
2018-Jun-17 14:30N 40°30' E 014°10'610.8
2018-Jun-17 13:59N 40°25' E 014°13'510.7
2018-Jun-17 13:30N 40°20' E 014°16'510.9
2018-Jun-17 13:00N 40°16' E 014°20'610.8
2018-Jun-17 12:29N 40°11' E 014°23'510.6
2018-Jun-17 12:00N 40°06' E 014°26'12010.5
2018-Jun-17 00:29N 38°20' E 015°40'6 6.9
2018-Jun-16 23:36N 38°14' E 015°38'1 6.0
2018-Jun-16 23:30N 38°14' E 015°37'4 8.9
2018-Jun-16 23:00N 38°10' E 015°36'510.2
2018-Jun-16 22:30N 38°05' E 015°35'7 9.9
2018-Jun-16 21:49N 37°58' E 015°37'410.3
2018-Jun-16 21:28N 37°55' E 015°39'5 9.7
2018-Jun-16 20:59N 37°53' E 015°44'611.0
2018-Jun-16 20:27N 37°52' E 015°52'421 8.7
2018-Jun-14 20:16N 38°05' E 024°45'310.1
2018-Jun-14 20:00N 38°07' E 024°48'  
Track history (hours):
 
Tides and Currents Weather Stations Pressure Air Temp Water Temp Dewpoint Dewpoint Depression Visibility Wind Speed Wind Dir Waves Ship Positions

Southwester

Last reported at 2018-Jun-19 10:12 UTC. Time now 2018-Jun-21 23:52 UTC.
Position N 37°53' E 015°39'.

Length 100 m; draft 4.8 m.

Type: Cargo ship. MMSI: 518100201.

Date/timePositionNaut miles runAvg speedWind from/ knotsBaromVisibWave heightAir tempDewpointWater temp
2018-Jun-19 10:12N 37°53' E 015°39'2 9.9
2018-Jun-19 10:00N 37°54' E 015°38'810.1
2018-Jun-19 09:11N 38°02' E 015°34'210.9
2018-Jun-19 09:00N 38°04' E 015°35'611.0
2018-Jun-19 08:30N 38°09' E 015°35'910.5
2018-Jun-19 07:41N 38°17' E 015°40'212.5
2018-Jun-19 07:30N 38°19' E 015°38'612.0
2018-Jun-19 07:00N 38°24' E 015°34'611.6
2018-Jun-19 06:30N 38°29' E 015°31'12311.4
2018-Jun-18 19:40N 40°18' E 014°17'211.5
2018-Jun-18 19:30N 40°20' E 014°16'911.6
2018-Jun-18 18:44N 40°28' E 014°11'411.4
2018-Jun-18 18:20N 40°32' E 014°09'411.5
2018-Jun-18 18:00N 40°36' E 014°11'611.4
2018-Jun-18 17:30N 40°41' E 014°13'611.4
2018-Jun-18 17:00N 40°47' E 014°16'4 6.8
2018-Jun-18 16:28N 40°50' E 014°17'0 0.0
2018-Jun-18 15:58N 40°50' E 014°17'0 0.0
2018-Jun-18 15:25N 40°50' E 014°17'0 0.0
2018-Jun-18 14:58N 40°50' E 014°17'0 0.0
2018-Jun-18 14:28N 40°50' E 014°17'0 0.0
2018-Jun-18 13:58N 40°50' E 014°17'0 0.0
2018-Jun-18 13:28N 40°50' E 014°17'0 0.0
2018-Jun-18 12:58N 40°50' E 014°17'0 0.0
2018-Jun-18 12:28N 40°50' E 014°17'0 0.0
2018-Jun-18 11:58N 40°50' E 014°17'0 0.0
2018-Jun-18 11:25N 40°50' E 014°17'0 0.0
2018-Jun-18 10:58N 40°50' E 014°17'0 0.0
2018-Jun-18 10:28N 40°50' E 014°17'0 0.0
2018-Jun-18 09:58N 40°50' E 014°17'0 0.0
2018-Jun-18 09:28N 40°50' E 014°17'0 0.0
2018-Jun-18 08:58N 40°50' E 014°17'0 0.0
2018-Jun-18 08:28N 40°50' E 014°17'0 0.0
2018-Jun-18 07:58N 40°50' E 014°17'0 0.0
2018-Jun-18 07:28N 40°50' E 014°17'0 0.0
2018-Jun-18 06:58N 40°50' E 014°17'0 0.0
2018-Jun-18 06:28N 40°50' E 014°17'0 0.0
2018-Jun-18 05:58N 40°50' E 014°17'0 0.0
2018-Jun-18 05:29N 40°50' E 014°17'0 0.9
2018-Jun-18 05:01N 40°50' E 014°17'1 2.7
2018-Jun-18 04:29N 40°49' E 014°18'0 0.2
2018-Jun-18 03:59N 40°49' E 014°18'0 0.1
2018-Jun-18 03:29N 40°49' E 014°18'0 0.0
2018-Jun-18 02:59N 40°49' E 014°18'0 0.0
2018-Jun-18 02:29N 40°49' E 014°18'0 0.0
2018-Jun-18 01:59N 40°49' E 014°18'0 0.0
2018-Jun-18 01:29N 40°49' E 014°18'0 0.0
2018-Jun-18 00:59N 40°49' E 014°18'0 0.0
2018-Jun-18 00:29N 40°49' E 014°18'0 0.0
2018-Jun-17 23:59N 40°49' E 014°18'0 0.0
2018-Jun-17 23:29N 40°49' E 014°18'0 0.1
2018-Jun-17 22:59N 40°49' E 014°18'0 0.0
2018-Jun-17 22:29N 40°49' E 014°18'0 0.1
2018-Jun-17 21:59N 40°49' E 014°18'0 0.0
2018-Jun-17 21:29N 40°49' E 014°18'0 0.0
2018-Jun-17 20:59N 40°49' E 014°18'0 0.0
2018-Jun-17 20:29N 40°49' E 014°18'0 0.0
2018-Jun-17 19:59N 40°49' E 014°18'0 0.0
2018-Jun-17 19:29N 40°49' E 014°18'0 0.0
2018-Jun-17 18:59N 40°49' E 014°18'0 0.1
2018-Jun-17 18:29N 40°49' E 014°18'0 0.0
2018-Jun-17 17:59N 40°49' E 014°18'0 0.1
2018-Jun-17 17:29N 40°49' E 014°18'0 0.1
2018-Jun-17 16:56N 40°49' E 014°18'1 1.8
2018-Jun-17 16:30N 40°48' E 014°17'4 7.4
2018-Jun-17 16:01N 40°45' E 014°15'510.9
2018-Jun-17 15:30N 40°40' E 014°12'510.6
2018-Jun-17 15:01N 40°35' E 014°10'510.0
2018-Jun-17 14:30N 40°30' E 014°10'610.8
2018-Jun-17 13:59N 40°25' E 014°13'510.7
2018-Jun-17 13:30N 40°20' E 014°16'510.9
2018-Jun-17 13:00N 40°16' E 014°20'610.8
2018-Jun-17 12:29N 40°11' E 014°23'510.6
2018-Jun-17 12:00N 40°06' E 014°26'12010.5
2018-Jun-17 00:29N 38°20' E 015°40'6 6.9
2018-Jun-16 23:36N 38°14' E 015°38'1 6.0
2018-Jun-16 23:30N 38°14' E 015°37'4 8.9
2018-Jun-16 23:00N 38°10' E 015°36'510.2
2018-Jun-16 22:30N 38°05' E 015°35'7 9.9
2018-Jun-16 21:49N 37°58' E 015°37'410.3
2018-Jun-16 21:28N 37°55' E 015°39'5 9.7
2018-Jun-16 20:59N 37°53' E 015°44'611.0
2018-Jun-16 20:27N 37°52' E 015°52'421 8.7
2018-Jun-14 20:16N 38°05' E 024°45'310.1
2018-Jun-14 20:00N 38°07' E 024°48'  

Dump ship's entire track history